Weather reports worldwide

Advertisment
Menorca Airport, Spain (2008314): temperature & dewpoint: 20.09.2018 11:00:00 - 26.09.2018 11:00:00 (CEST)Menorca Airport, Spain (2008314): wind speed: 20.09.2018 11:00:00 - 26.09.2018 11:00:00 (CEST)Menorca Airport, Spain (2008314): wind direction: 20.09.2018 11:00:00 - 26.09.2018 11:00:00 (CEST)Menorca Airport, Spain (2008314): visibility: 20.09.2018 11:00:00 - 26.09.2018 11:00:00 (CEST)
Date & Time tt [°C] td [°C] ff [km/h] ff [kn] dd vv [km]
26.09.2018 11:00:00 23,0 16,0 29 16 E 10
26.09.2018 10:00:00 23,0 16,0 29 16 E 10
26.09.2018 09:00:00 23,0 18,0 18 10 E 10
26.09.2018 08:00:00 21,0 15,0 18 10 ENE 10
26.09.2018 07:00:00 21,0 14,0 18 10 ENE 10
26.09.2018 06:00:00 22,0 15,0 22 12 ENE 10
26.09.2018 05:00:00 22,0 16,0 26 14 ENE 10
26.09.2018 04:00:00 22,0 17,0 24 13 ENE 10
26.09.2018 03:00:00 22,0 16,0 24 13 ENE 10
26.09.2018 02:00:00 22,0 16,0 22 12 ENE 10
26.09.2018 01:00:00 23,0 19,0 26 14 ENE 10
26.09.2018 00:00:00 23,0 17,0 24 13 ENE 10
25.09.2018 23:00:00 23,0 17,0 22 12 ENE 10
25.09.2018 22:00:00 23,0 18,0 24 13 ENE 10
25.09.2018 21:00:00 23,0 18,0 18 10 ENE 10
25.09.2018 20:00:00 23,0 18,0 24 13 ENE 10
25.09.2018 19:00:00 23,0 18,0 24 13 NE 10
25.09.2018 18:00:00 24,0 19,0 26 14 ENE 10
25.09.2018 17:00:00 23,0 20,0 16 9 ENE 10
25.09.2018 16:00:00 25,0 19,0 21 11 ENE 10
25.09.2018 15:00:00 25,0 20,0 21 11 NNE 10
25.09.2018 14:00:00 24,0 20,0 22 12 N 10
25.09.2018 13:00:00 23,0 19,0 22 12 N 10
25.09.2018 12:00:00 22,0 18,0 24 13 N 10
25.09.2018 11:00:00 22,0 17,0 28 15 NNE 10
25.09.2018 10:00:00 21,0 16,0 28 15 NNE 10
25.09.2018 09:00:00 20,0 15,0 26 14 NNE 10
25.09.2018 08:00:00 20,0 15,0 18 10 NNE 10
25.09.2018 07:00:00 20,0 15,0 26 14 NNE 10
25.09.2018 06:00:00 20,0 14,0 26 14 NNE 10
25.09.2018 05:00:00 20,0 13,0 28 15 NNE 10
25.09.2018 04:00:00 20,0 14,0 28 15 NNE 10
25.09.2018 03:00:00 20,0 14,0 26 14 NNE 10
25.09.2018 02:00:00 21,0 13,0 31 17 NNE 10
25.09.2018 01:00:00 22,0 14,0 29 16 NNE 10
25.09.2018 00:00:00 22,0 14,0 31 17 NNE 10
24.09.2018 23:00:00 22,0 14,0 29 16 NNE 10
24.09.2018 22:00:00 23,0 15,0 26 14 NNE 10
24.09.2018 21:00:00 23,0 15,0 22 12 NNE 10
24.09.2018 20:00:00 23,0 17,0 16 9 NNE 10
24.09.2018 19:00:00 23,0 18,0 22 12 NNE 10
24.09.2018 18:00:00 23,0 19,0 26 14 NNE 10
24.09.2018 17:00:00 24,0 19,0 28 15 NNE 10
24.09.2018 16:00:00 24,0 19,0 26 14 NE 10
24.09.2018 15:00:00 25,0 19,0 24 13 NNE 10
24.09.2018 14:00:00 25,0 20,0 22 12 NE 10
24.09.2018 13:00:00 25,0 20,0 26 14 NNE 10
24.09.2018 12:00:00 26,0 21,0 26 14 NNE 10
24.09.2018 11:00:00 25,0 21,0 18 10 N 10
24.09.2018 10:00:00 25,0 21,0 16 9 NNE 10
24.09.2018 09:00:00 24,0 20,0 9 5 N 10
24.09.2018 08:00:00 21,0 20,0 5 3 N 10
24.09.2018 07:00:00 21,0 20,0 8 4 N 10
24.09.2018 06:00:00 22,0 19,0 5 3 NNE 10
24.09.2018 05:00:00 22,0 18,0 5 3 NNE 10
24.09.2018 04:00:00 22,0 18,0 5 3 NW 10
24.09.2018 03:00:00 22,0 19,0 8 4 NW 10
24.09.2018 02:00:00 22,0 20,0 8 4 WNW 10
24.09.2018 01:00:00 22,0 21,0 8 4 W 10
24.09.2018 00:00:00 23,0 20,0 11 6 W 10
23.09.2018 23:00:00 24,0 19,0 15 8 W 10
23.09.2018 22:00:00 24,0 21,0 16 9 W 10
23.09.2018 21:00:00 24,0 21,0 16 9 WSW 10
23.09.2018 20:00:00 24,0 21,0 13 7 WSW 10
23.09.2018 19:00:00 26,0 21,0 15 8 WSW 10
23.09.2018 18:00:00 26,0 22,0 13 7 WSW 10
23.09.2018 17:00:00 26,0 22,0 13 7 SW 10
23.09.2018 16:00:00 26,0 22,0 15 8 WSW 10
23.09.2018 15:00:00 27,0 22,0 16 9 WSW 10
23.09.2018 14:00:00 27,0 22,0 15 8 W 10
23.09.2018 13:00:00 27,0 22,0 15 8 WSW 10
23.09.2018 12:00:00 28,0 20,0 4 2 - 10
23.09.2018 11:00:00 27,0 21,0 8 4 NW 10
23.09.2018 10:00:00 25,0 21,0 8 4 NW 10
23.09.2018 09:00:00 24,0 20,0 2 1 - 10
23.09.2018 08:00:00 21,0 19,0 5 3 N 10
23.09.2018 07:00:00 22,0 19,0 4 2 N 10
23.09.2018 06:00:00 23,0 20,0 13 7 N 10
23.09.2018 05:00:00 23,0 19,0 16 9 N 10
23.09.2018 04:00:00 22,0 21,0 4 2 NNW 10
23.09.2018 03:00:00 22,0 21,0 11 6 NNW 10
23.09.2018 02:00:00 23,0 21,0 8 4 NW 10
23.09.2018 01:00:00 23,0 21,0 9 5 W 10
23.09.2018 00:00:00 24,0 21,0 13 7 W 10
22.09.2018 23:00:00 24,0 21,0 13 7 W 10
22.09.2018 22:00:00 23,0 20,0 13 7 WSW 10
22.09.2018 21:00:00 23,0 20,0 8 4 WSW 10
22.09.2018 20:00:00 23,0 20,0 5 3 SW 10
22.09.2018 19:00:00 24,0 20,0 5 3 SSW 10
22.09.2018 18:00:00 25,0 20,0 5 3 SSW 10
22.09.2018 17:00:00 26,0 20,0 8 4 SSW 10
22.09.2018 16:00:00 26,0 20,0 9 5 SSW 10
22.09.2018 15:00:00 27,0 20,0 13 7 SW 10
22.09.2018 14:00:00 26,0 18,0 4 2 - 10
22.09.2018 13:00:00 26,0 20,0 15 8 NNE 10
22.09.2018 12:00:00 25,0 19,0 18 10 NNE 10
22.09.2018 11:00:00 25,0 19,0 22 12 NE 10
22.09.2018 10:00:00 24,0 19,0 28 15 NNE 10
22.09.2018 09:00:00 24,0 19,0 21 11 NNE 10
22.09.2018 08:00:00 22,0 18,0 16 9 NNE 10
22.09.2018 07:00:00 22,0 18,0 16 9 NNE 10
22.09.2018 06:00:00 22,0 18,0 16 9 NNE 10
22.09.2018 05:00:00 22,0 19,0 16 9 NNE 10
22.09.2018 04:00:00 22,0 20,0 16 9 N 10
22.09.2018 03:00:00 22,0 20,0 11 6 N 10
22.09.2018 02:00:00 22,0 21,0 9 5 N 10
22.09.2018 01:00:00 22,0 21,0 13 7 N 10
22.09.2018 00:00:00 22,0 21,0 5 3 NNW 10
21.09.2018 23:00:00 22,0 20,0 5 3 NNW 10
21.09.2018 22:00:00 22,0 20,0 5 3 NNW 10
21.09.2018 21:00:00 23,0 21,0 0 0 N 10
21.09.2018 20:00:00 25,0 22,0 5 3 E 10
21.09.2018 19:00:00 27,0 22,0 8 4 - 10
21.09.2018 18:00:00 27,0 20,0 9 5 WNW 10
21.09.2018 17:00:00 28,0 21,0 9 5 W 10
21.09.2018 16:00:00 28,0 20,0 13 7 W 10
21.09.2018 15:00:00 27,0 21,0 15 8 W 10
21.09.2018 14:00:00 27,0 22,0 16 9 W 10
21.09.2018 13:00:00 27,0 22,0 16 9 W 10
21.09.2018 12:00:00 27,0 22,0 11 6 W 10
21.09.2018 11:00:00 26,0 21,0 13 7 WNW 10
21.09.2018 10:00:00 24,0 22,0 9 5 WNW 10
21.09.2018 09:00:00 23,0 21,0 8 4 WNW 10
21.09.2018 08:00:00 20,0 20,0 5 3 WNW 10
21.09.2018 07:00:00 20,0 19,0 5 3 WNW 8
21.09.2018 06:00:00 20,0 20,0 4 2 WNW 10
21.09.2018 05:00:00 21,0 20,0 4 2 NW 10
21.09.2018 04:00:00 21,0 20,0 9 5 NNW 10
21.09.2018 03:00:00 21,0 20,0 5 3 NNW 10
21.09.2018 02:00:00 21,0 20,0 5 3 NNW 10
21.09.2018 01:00:00 21,0 20,0 8 4 NW 10
21.09.2018 00:00:00 21,0 20,0 5 3 NW 10
20.09.2018 23:00:00 21,0 20,0 4 2 NW 10
20.09.2018 22:00:00 22,0 20,0 4 2 N 10
20.09.2018 21:00:00 22,0 20,0 2 1 NNW 10
20.09.2018 20:00:00 23,0 20,0 4 2 NNW 10
20.09.2018 19:00:00 25,0 20,0 5 3 N 10
20.09.2018 18:00:00 26,0 20,0 8 4 N 10
20.09.2018 17:00:00 27,0 20,0 2 1 - 10
20.09.2018 16:00:00 27,0 20,0 5 3 - 10
20.09.2018 15:00:00 - - 2 1 - 10
20.09.2018 14:00:00 - - 5 3 NNE 10
20.09.2018 13:00:00 - - 5 3 N 10
20.09.2018 12:00:00 - - 8 4 N 10
20.09.2018 11:00:00 - - 11 6 N 10

tt = temperature
td = dewpoint
ff = wind speed
dd = wind direction
vv = visibility

Next stations